Impacts TAF Board
For situational awareness. Not to be used for flight planning purposes.
IDs:

KPDT - Pendleton/E Oregon R, OR, US

Issued at 2321 UTC 18 Oct 2021
Updated at 0150 UTC 19 Oct 2021
Potential Impact None Slight Moderate High
Time0053Z 19/02Z 19/03Z 19/04Z 19/05Z 19/06Z 19/07Z 19/08Z 19/09Z 19/10Z 19/11Z 19/12Z 19/13Z 19/14Z>>
Type OBS PRVL PRVL PRVL PRVL PRVL PRVL PRVL PRVL PRVL PRVL PRVL PRVL PRVL
VIS 10 >6 >6 >6 >6 >6 >6 >6 >6 >6 >6 >6 >6 >6
CIG -- -- -- -- -- -- -- -- -- -- -- -- -- --
Cover CLR SKC SKC SKC SKC SKC SKC SKC SKC SKC SKC SKC SKC SKC
FltCat VFR VFR VFR VFR VFR VFR VFR VFR VFR VFR VFR VFR VFR VFR
WX -- -- -- -- -- -- -- -- -- -- -- -- -- --
WDir 290 280 VRB VRB VRB VRB VRB VRB VRB VRB VRB VRB VRB VRB
WSpd 4 6 6 6 6 6 6 6 6 6 6 6 6 6
WGst -- -- -- -- -- -- -- -- -- -- -- -- -- --
Raw TAF
KPDT 182321Z 1900/1924 28006KT P6SM SKC
  FM190300 VRB06KT P6SM SKC
  FM191800 36007KT P6SM SKC


Raw METAR
KPDT 190053Z 29004KT 10SM CLR 14/03 A2987 RMK AO2 SLP110 T01440028
KPDT 182353Z 28006KT 10SM CLR 17/03 A2987 RMK AO2 SLP107 T01670028 10178 20139 53001
KPDT 182253Z VRB05KT 10SM CLR 17/04 A2987 RMK AO2 SLP107 T01720039

METAR Board
Radar Display
Forecast Discussion
For situational awareness. Not to be used for flight planning purposes.